Coppell, Texas
Current Conditions -  °F | °C
As of 4:53 PM on Friday 28 Nov 2014 (Local Time) from KDFW Reporting Station
Few Clouds Few Clouds  
Wind Chill: 67°   Ceiling: Unl
Heat Index: 67°   Visibility: 10mi
Dew Point: 49°   Wind: 20mph
Humidity: 52%   Direction: 190°S
Pressure: 30.01"   Gusts: NA
Location:  32.98°N, 96.99°W
Report Text: KDFW 282253Z 19017KT 10SM FEW300 19/09 A3001 RMK AO2 PK WND 19027/2158 SLP161 T01940094
Loading
Personal Weather Stations






























Interactive Weather Map New forecast layout! Learn more

10-Day Weather Forecast

Advertisements
Track Severe Weather on mobile